Huntington Station, New York
Current Conditions -  °F | °C
As of 12:53 AM on Sunday 26 Oct 2014 (Local Time) from KFRG Reporting Station
Broken Clouds Broken Clouds  
Wind Chill: 60°   Ceiling: 10000
Heat Index: 60°   Visibility: 10mi
Dew Point: 45°   Wind: 10mph
Humidity: 57%   Direction: 250°WSW
Pressure: 29.55"   Gusts: NA
Location:  40.84°N, 73.39°W
Report Text: KFRG 260453Z AUTO 25009KT 10SM SCT075 BKN100 16/07 A2955 RMK AO2 SLP007 T01560072 401890078
Loading
Personal Weather Stations






























Interactive Weather Map
Tropical Storm Tracking
New forecast layout! Learn more

10-Day Weather Forecast

Advertisements
Track Severe Weather on mobile